Time;durP1;ratioP1;P1;durP2;ratioP2;P2;SDS_P1;SDS_P2;PMS_P1;PMS_P2;Temp;Humidity;BMP_temperature;BMP_pressure;BME280_temperature;BME280_humidity;BME280_pressure;Samples;Min_cycle;Max_cycle;Signal;HPM_P1;HPM_P2
2021/05/06 00:07:48;;;;;;;2.78;2.20;;;5.00;99.90;;;;;;484127;244;27941;-72
2021/05/06 00:10:19;;;;;;;2.60;2.40;;;5.00;99.90;;;;;;484538;244;27457;-72
2021/05/06 00:33:57;;;;;;;3.03;2.50;;;5.00;99.90;;;;;;484089;244;27367;-73
2021/05/06 00:35:58;;;;;;;5.18;3.20;;;5.00;99.90;;;;;;484102;244;27837;-71
2021/05/06 00:38:05;;;;;;;5.05;2.90;;;5.00;99.90;;;;;;484115;244;27933;-71
2021/05/06 00:40:07;;;;;;;4.35;2.50;;;5.10;99.90;;;;;;484192;244;27350;-71
2021/05/06 00:42:29;;;;;;;3.35;2.50;;;5.10;99.90;;;;;;484159;244;27397;-71
2021/05/06 00:44:59;;;;;;;4.25;2.50;;;5.10;99.90;;;;;;484319;244;27858;-71
2021/05/06 00:46:42;;;;;;;2.67;2.47;;;5.10;99.90;;;;;;484562;244;28046;-71
2021/05/06 00:55:43;;;;;;;5.62;3.12;;;4.90;99.90;;;;;;484081;244;27963;-72
2021/05/06 00:57:49;;;;;;;4.25;2.90;;;4.90;99.90;;;;;;484428;244;28072;-72
2021/05/06 01:01:56;;;;;;;4.37;2.80;;;4.80;99.90;;;;;;484109;244;27816;-72
2021/05/06 01:05:59;;;;;;;4.32;2.42;;;4.80;99.90;;;;;;484096;244;27358;-72
2021/05/06 01:08:05;;;;;;;2.72;2.50;;;4.70;99.90;;;;;;484179;244;27350;-71
2021/05/06 01:12:09;;;;;;;3.28;2.97;;;4.70;99.90;;;;;;484098;244;27362;-72
2021/05/06 01:14:10;;;;;;;3.08;2.78;;;4.70;99.90;;;;;;484113;244;27453;-71
2021/05/06 01:16:11;;;;;;;3.65;2.80;;;4.70;99.90;;;;;;484113;244;27342;-72
2021/05/06 01:18:12;;;;;;;3.97;3.28;;;4.70;99.90;;;;;;484111;244;27362;-73
2021/05/06 01:20:14;;;;;;;2.80;2.42;;;4.70;99.90;;;;;;484108;244;27805;-71
2021/05/06 01:22:15;;;;;;;5.28;3.05;;;4.70;99.90;;;;;;484119;244;27938;-72
2021/05/06 01:24:16;;;;;;;4.20;3.50;;;4.70;99.90;;;;;;484119;244;27349;-71
2021/05/06 01:26:28;;;;;;;3.97;2.90;;;4.70;99.90;;;;;;484105;244;27379;-72
2021/05/06 01:28:21;;;;;;;5.37;2.80;;;4.70;99.90;;;;;;484297;244;27449;-72
2021/05/06 01:30:28;;;;;;;3.75;3.00;;;4.70;99.90;;;;;;484128;244;27449;-72
2021/05/06 01:34:25;;;;;;;3.65;2.90;;;4.60;99.90;;;;;;484073;244;27803;-71
2021/05/06 01:36:32;;;;;;;4.82;2.80;;;4.60;99.90;;;;;;484099;244;27353;-71
2021/05/06 01:38:41;;;;;;;3.97;2.47;;;4.50;99.90;;;;;;484182;244;27342;-71
2021/05/06 01:42:47;;;;;;;3.60;2.85;;;4.50;99.90;;;;;;484097;244;27358;-72
2021/05/06 01:49:36;;;;;;;4.65;3.80;;;4.40;99.90;;;;;;484094;244;28009;-72
2021/05/06 02:00:29;;;;;;;9.35;3.60;;;4.40;99.90;;;;;;484088;244;27813;-71
2021/05/06 02:02:26;;;;;;;3.25;2.40;;;4.50;99.90;;;;;;484232;241;27948;-72
2021/05/06 02:04:28;;;;;;;5.45;3.20;;;4.50;99.90;;;;;;484118;244;27354;-73
2021/05/06 02:06:29;;;;;;;3.55;2.55;;;4.60;99.90;;;;;;484086;244;27416;-72
2021/05/06 02:08:30;;;;;;;5.60;3.03;;;4.60;99.90;;;;;;484069;244;27441;-73
2021/05/06 02:10:31;;;;;;;3.62;2.58;;;4.60;99.90;;;;;;484101;244;27334;-72
2021/05/06 02:12:33;;;;;;;4.15;2.80;;;4.70;99.90;;;;;;484121;244;27473;-71
2021/05/06 02:14:34;;;;;;;3.55;3.00;;;4.70;99.90;;;;;;484093;244;27350;-72
2021/05/06 02:16:39;;;;;;;4.18;2.87;;;4.70;99.90;;;;;;484086;244;27797;-71
2021/05/06 02:18:39;;;;;;;5.00;3.53;;;4.70;99.90;;;;;;484091;244;27358;-71
2021/05/06 02:20:40;;;;;;;5.65;3.33;;;4.80;99.90;;;;;;484091;244;27358;-72
2021/05/06 02:22:42;;;;;;;3.12;2.50;;;4.80;99.90;;;;;;484104;244;27795;-71
2021/05/06 02:24:43;;;;;;;2.80;2.60;;;4.90;99.90;;;;;;484102;244;27837;-72
2021/05/06 02:26:44;;;;;;;4.30;2.95;;;4.90;99.90;;;;;;484109;244;27350;-71
2021/05/06 02:28:45;;;;;;;5.70;3.25;;;4.90;99.90;;;;;;484100;244;27343;-71
2021/05/06 02:30:47;;;;;;;10.63;3.22;;;5.00;99.90;;;;;;484104;244;27373;-73
2021/05/06 02:32:48;;;;;;;5.43;2.85;;;5.00;99.90;;;;;;484090;244;27342;-72
2021/05/06 02:34:49;;;;;;;3.83;2.75;;;5.00;99.90;;;;;;484079;244;27350;-71
2021/05/06 02:36:50;;;;;;;4.18;2.97;;;5.00;99.90;;;;;;484094;244;27830;-72
2021/05/06 02:38:52;;;;;;;3.05;2.20;;;5.00;99.90;;;;;;484094;244;27928;-71
2021/05/06 02:40:53;;;;;;;3.00;2.50;;;5.00;99.90;;;;;;484122;244;27358;-72
2021/05/06 02:42:54;;;;;;;3.28;2.97;;;5.00;99.90;;;;;;484115;244;27346;-71
2021/05/06 02:44:55;;;;;;;2.95;2.65;;;5.00;99.90;;;;;;484112;244;27361;-72
2021/05/06 02:46:57;;;;;;;3.20;2.62;;;5.10;99.90;;;;;;484119;244;27425;-72
2021/05/06 02:48:58;;;;;;;8.50;3.25;;;5.10;99.90;;;;;;484122;244;27349;-71
2021/05/06 02:51:01;;;;;;;3.30;2.55;;;5.10;99.90;;;;;;484137;244;27377;-73
2021/05/06 02:53:03;;;;;;;7.18;2.85;;;5.10;99.90;;;;;;484157;244;27806;-71
2021/05/06 02:55:14;;;;;;;4.87;2.58;;;5.10;99.90;;;;;;484158;244;27816;-71
2021/05/06 02:57:38;;;;;;;5.47;3.17;;;5.10;99.90;;;;;;484259;244;27346;-71
2021/05/06 03:03:43;;;;;;;4.62;3.35;;;5.20;99.90;;;;;;484105;244;27352;-74
2021/05/06 03:05:38;;;;;;;4.32;3.10;;;5.20;99.90;;;;;;484315;244;27454;-71
2021/05/06 03:07:38;;;;;;;10.95;3.72;;;5.10;99.90;;;;;;484166;244;27931;-72
2021/05/06 03:11:51;;;;;;;3.67;2.80;;;5.20;99.90;;;;;;484141;244;27816;-72
2021/05/06 03:22:48;;;;;;;6.57;2.95;;;5.30;99.90;;;;;;484111;244;27885;-71
2021/05/06 03:24:49;;;;;;;6.10;3.22;;;5.30;99.90;;;;;;484152;244;27840;-73
2021/05/06 03:26:47;;;;;;;6.07;2.95;;;5.30;99.90;;;;;;484175;244;27453;-71
2021/05/06 03:28:56;;;;;;;3.28;2.30;;;5.30;99.90;;;;;;484139;244;27436;-72
2021/05/06 03:42:07;;;;;;;6.85;3.30;;;5.30;99.90;;;;;;490970;241;27364;-71
2021/05/06 04:03:16;;;;;;;7.30;2.72;;;5.30;99.90;;;;;;484112;244;27366;-73
2021/05/06 04:15:47;;;;;;;6.30;2.55;;;5.20;99.90;;;;;;484098;244;27420;-72
2021/05/06 04:17:48;;;;;;;8.82;3.45;;;5.20;99.90;;;;;;484451;244;27461;-71
2021/05/06 04:22:08;;;;;;;5.05;2.70;;;5.20;99.90;;;;;;484114;244;27926;-71
2021/05/06 04:26:12;;;;;;;2.95;2.62;;;5.20;99.90;;;;;;484125;244;27353;-71
2021/05/06 04:37:16;;;;;;;4.53;2.83;;;5.10;99.90;;;;;;484092;244;27807;-71
2021/05/06 04:39:25;;;;;;;3.85;2.30;;;5.10;99.90;;;;;;484118;244;27350;-71
2021/05/06 04:54:58;;;;;;;3.28;2.50;;;5.00;99.90;;;;;;484121;244;27982;-70
2021/05/06 05:05:41;;;;;;;14.15;4.07;;;4.90;99.90;;;;;;484113;244;27892;-70
2021/05/06 05:07:46;;;;;;;4.90;3.00;;;4.90;99.90;;;;;;484103;244;27793;-71
2021/05/06 05:14:29;;;;;;;5.60;3.37;;;4.90;99.90;;;;;;484103;244;27884;-71
2021/05/06 05:18:57;;;;;;;4.00;2.80;;;4.90;99.90;;;;;;484115;244;27362;-70
2021/05/06 05:21:02;;;;;;;4.05;2.92;;;4.90;99.90;;;;;;484341;244;27365;-70
2021/05/06 05:23:25;;;;;;;5.40;3.45;;;4.90;99.90;;;;;;484360;244;27349;-70
2021/05/06 05:25:06;;;;;;;3.40;3.10;;;4.90;99.90;;;;;;484541;244;27839;-70
2021/05/06 05:27:05;;;;;;;9.55;3.50;;;4.90;99.90;;;;;;484143;244;27904;-70
2021/05/06 05:29:06;;;;;;;4.65;2.83;;;4.90;99.90;;;;;;484102;244;27361;-72
2021/05/06 05:31:07;;;;;;;6.25;3.50;;;4.90;99.90;;;;;;484111;244;27330;-71
2021/05/06 05:33:14;;;;;;;5.95;3.25;;;4.90;99.90;;;;;;484094;241;27371;-71
2021/05/06 05:35:22;;;;;;;9.85;3.80;;;4.90;99.90;;;;;;484162;244;27826;-70
2021/05/06 05:37:19;;;;;;;3.87;2.80;;;4.90;99.90;;;;;;484267;244;27375;-72
2021/05/06 05:41:51;;;;;;;5.93;3.22;;;5.00;99.90;;;;;;489149;241;27447;-72
2021/05/06 05:54:47;;;;;;;4.45;3.20;;;5.00;99.90;;;;;;484098;244;28534;-72
2021/05/06 05:56:49;;;;;;;4.30;3.25;;;5.00;99.90;;;;;;484098;244;27425;-72
2021/05/06 05:58:51;;;;;;;3.15;2.50;;;5.10;99.90;;;;;;484112;244;27343;-70
2021/05/06 06:00:51;;;;;;;3.92;3.25;;;5.10;99.90;;;;;;484083;244;27350;-71
2021/05/06 06:02:52;;;;;;;7.47;3.70;;;5.10;99.90;;;;;;484112;244;27771;-70
2021/05/06 06:04:54;;;;;;;5.60;3.65;;;5.00;99.90;;;;;;484105;244;29117;-70
2021/05/06 06:06:55;;;;;;;6.78;3.17;;;5.00;99.90;;;;;;484116;244;27418;-72
2021/05/06 06:08:56;;;;;;;4.62;3.67;;;5.00;99.90;;;;;;484118;244;27346;-70
2021/05/06 06:10:57;;;;;;;4.35;3.20;;;5.00;99.90;;;;;;484122;244;27342;-71
2021/05/06 06:12:59;;;;;;;3.87;3.30;;;5.00;99.90;;;;;;484106;244;27330;-71
2021/05/06 06:15:03;;;;;;;4.03;3.20;;;5.00;99.90;;;;;;484111;244;27354;-71
2021/05/06 06:17:01;;;;;;;4.15;3.45;;;5.10;99.90;;;;;;484136;244;27841;-73
2021/05/06 06:19:03;;;;;;;8.07;3.50;;;5.10;99.90;;;;;;484099;244;27818;-71
2021/05/06 06:21:19;;;;;;;7.43;3.47;;;5.10;99.90;;;;;;484135;244;27467;-71
2021/05/06 06:23:05;;;;;;;7.30;4.32;;;5.10;99.90;;;;;;484771;241;27453;-70
2021/05/06 06:25:06;;;;;;;6.55;3.35;;;5.10;99.90;;;;;;484129;244;27354;-70
2021/05/06 06:27:08;;;;;;;5.93;3.70;;;5.20;99.90;;;;;;484132;244;27349;-71
2021/05/06 06:29:11;;;;;;;6.77;3.60;;;5.20;99.90;;;;;;484163;244;27334;-70
2021/05/06 06:31:33;;;;;;;4.70;3.42;;;5.30;99.90;;;;;;484169;244;28254;-71
2021/05/06 06:33:29;;;;;;;5.77;3.37;;;5.30;99.90;;;;;;484221;244;27343;-71
2021/05/06 06:35:31;;;;;;;9.48;3.25;;;5.30;99.90;;;;;;484118;244;28432;-71
2021/05/06 06:37:32;;;;;;;6.05;3.30;;;5.30;99.90;;;;;;484164;244;27459;-72
2021/05/06 06:39:36;;;;;;;6.00;4.40;;;5.40;99.90;;;;;;484145;244;27345;-70
2021/05/06 06:41:34;;;;;;;4.72;3.20;;;5.40;99.90;;;;;;484167;244;28849;-71
2021/05/06 06:43:36;;;;;;;6.43;3.67;;;5.50;99.90;;;;;;484151;244;27539;-70
2021/05/06 06:45:37;;;;;;;5.80;3.70;;;5.40;99.90;;;;;;484149;244;27901;-71
2021/05/06 06:47:38;;;;;;;8.17;3.87;;;5.50;99.90;;;;;;484128;244;28937;-72
2021/05/06 06:49:39;;;;;;;3.92;3.40;;;5.40;99.90;;;;;;484121;244;29086;-71
2021/05/06 06:51:41;;;;;;;7.12;4.40;;;5.40;99.90;;;;;;484146;244;27563;-71
2021/05/06 06:53:42;;;;;;;4.05;3.12;;;5.40;99.90;;;;;;484134;244;27349;-70
2021/05/06 06:55:43;;;;;;;6.57;3.93;;;5.40;99.90;;;;;;484145;244;27461;-70
2021/05/06 06:57:44;;;;;;;4.35;3.53;;;5.40;99.90;;;;;;484129;244;28804;-72
2021/05/06 06:59:46;;;;;;;11.17;4.10;;;5.50;99.90;;;;;;484137;244;27458;-70
2021/05/06 07:01:47;;;;;;;5.83;4.00;;;5.50;99.90;;;;;;484136;244;28022;-71
2021/05/06 07:03:48;;;;;;;6.55;4.37;;;5.50;99.90;;;;;;484136;244;29229;-70
2021/05/06 07:05:49;;;;;;;6.12;4.10;;;5.50;99.90;;;;;;484152;244;27940;-71
2021/05/06 07:07:51;;;;;;;7.07;3.47;;;5.70;99.90;;;;;;484148;244;27437;-73
2021/05/06 07:09:52;;;;;;;9.05;4.03;;;5.70;99.90;;;;;;484131;244;27972;-71
2021/05/06 07:11:53;;;;;;;7.77;3.20;;;5.80;99.90;;;;;;484138;244;27469;-71
2021/05/06 07:13:54;;;;;;;6.03;4.00;;;5.80;99.90;;;;;;484126;244;27576;-71
2021/05/06 07:15:56;;;;;;;5.00;3.80;;;5.90;99.90;;;;;;484141;244;27409;-70
2021/05/06 07:17:57;;;;;;;4.80;4.23;;;5.90;99.90;;;;;;484130;244;27574;-72
2021/05/06 07:19:58;;;;;;;8.67;4.53;;;6.00;99.90;;;;;;484123;244;28035;-71
2021/05/06 07:21:59;;;;;;;6.07;4.13;;;6.00;99.90;;;;;;484128;244;28281;-71
2021/05/06 07:24:01;;;;;;;5.37;4.07;;;6.10;99.90;;;;;;484144;244;27984;-70
2021/05/06 07:26:02;;;;;;;3.80;3.50;;;6.30;99.90;;;;;;484130;244;28488;-71
2021/05/06 07:28:03;;;;;;;4.37;3.93;;;6.40;99.90;;;;;;484127;244;28849;-70
2021/05/06 07:30:04;;;;;;;4.77;3.97;;;6.50;99.90;;;;;;484138;244;28397;-71
2021/05/06 07:32:06;;;;;;;6.17;4.67;;;6.60;99.90;;;;;;484142;244;27755;-72
2021/05/06 07:34:07;;;;;;;13.00;4.40;;;6.60;99.90;;;;;;484125;244;27692;-71
2021/05/06 07:36:08;;;;;;;8.33;4.23;;;6.70;99.90;;;;;;484120;244;27893;-71
2021/05/06 07:38:09;;;;;;;5.90;4.20;;;6.80;99.90;;;;;;484118;244;27793;-71
2021/05/06 07:40:11;;;;;;;4.47;3.90;;;6.90;99.90;;;;;;484117;244;27343;-70
2021/05/06 07:42:12;;;;;;;6.03;4.23;;;7.10;99.90;;;;;;484129;244;27787;-72
2021/05/06 07:44:13;;;;;;;6.70;5.03;;;7.10;99.90;;;;;;484127;244;27906;-71
2021/05/06 07:46:14;;;;;;;6.30;4.47;;;7.20;99.90;;;;;;484122;244;27573;-71
2021/05/06 07:48:16;;;;;;;4.23;3.90;;;7.10;99.90;;;;;;484127;244;27634;-70
2021/05/06 07:50:17;;;;;;;7.80;5.60;;;7.00;99.90;;;;;;484129;244;27705;-71
2021/05/06 07:52:20;;;;;;;7.20;5.20;;;7.00;99.90;;;;;;484137;244;27821;-72
2021/05/06 07:54:19;;;;;;;4.80;4.40;;;7.00;99.90;;;;;;484141;244;27683;-71
2021/05/06 07:56:21;;;;;;;7.67;4.77;;;7.00;99.90;;;;;;484128;244;27807;-72
2021/05/06 07:58:22;;;;;;;9.83;5.37;;;7.00;99.90;;;;;;484117;244;28280;-71
2021/05/06 08:00:23;;;;;;;7.07;5.10;;;6.90;99.90;;;;;;484122;244;28152;-71
2021/05/06 08:02:25;;;;;;;6.20;4.57;;;6.90;99.90;;;;;;484129;244;28488;-73
2021/05/06 08:04:26;;;;;;;5.70;4.73;;;6.80;99.90;;;;;;484135;244;28247;-70
2021/05/06 08:06:27;;;;;;;8.00;5.33;;;6.90;99.90;;;;;;484144;244;28287;-72
2021/05/06 08:08:28;;;;;;;5.60;4.63;;;6.90;99.90;;;;;;484122;244;27787;-70
2021/05/06 08:10:29;;;;;;;4.40;3.83;;;6.90;99.90;;;;;;484121;244;27889;-71
2021/05/06 08:12:31;;;;;;;4.10;3.70;;;6.90;99.90;;;;;;484110;244;27791;-72
2021/05/06 08:14:32;;;;;;;4.60;3.80;;;7.00;99.90;;;;;;484106;244;27889;-71
2021/05/06 08:16:33;;;;;;;8.53;5.10;;;7.00;99.90;;;;;;484114;244;27813;-71
2021/05/06 08:18:34;;;;;;;5.23;4.30;;;7.10;99.90;;;;;;484122;244;27598;-71
2021/05/06 08:20:36;;;;;;;7.37;4.97;;;7.20;99.90;;;;;;484115;244;27474;-71
2021/05/06 08:22:37;;;;;;;8.53;5.47;;;7.20;99.90;;;;;;484123;244;27703;-71
2021/05/06 08:24:38;;;;;;;10.70;6.13;;;7.20;99.90;;;;;;484138;244;27522;-71
2021/05/06 08:26:39;;;;;;;5.90;5.37;;;7.20;99.90;;;;;;484102;244;27878;-72
2021/05/06 08:28:41;;;;;;;5.83;5.27;;;7.40;99.90;;;;;;484122;244;27884;-71
2021/05/06 08:30:43;;;;;;;7.43;5.00;;;7.50;99.90;;;;;;484121;244;27548;-71
2021/05/06 08:32:43;;;;;;;9.00;5.80;;;7.40;99.90;;;;;;484119;244;27888;-71
2021/05/06 08:34:45;;;;;;;7.13;4.90;;;7.30;99.90;;;;;;484134;244;27984;-71
2021/05/06 08:36:46;;;;;;;6.00;4.13;;;7.30;99.90;;;;;;484133;244;27905;-72
2021/05/06 08:38:47;;;;;;;7.17;5.93;;;7.30;99.90;;;;;;484121;244;27819;-71
2021/05/06 08:40:49;;;;;;;6.23;4.30;;;7.20;99.90;;;;;;484135;244;27418;-71
2021/05/06 08:42:53;;;;;;;6.00;4.73;;;7.20;99.90;;;;;;484109;244;27896;-73
2021/05/06 08:44:51;;;;;;;5.07;4.67;;;7.30;99.90;;;;;;484194;244;27697;-71
2021/05/06 08:47:26;;;;;;;5.47;4.20;;;7.30;99.90;;;;;;484156;244;27552;-71
2021/05/06 08:48:59;;;;;;;8.60;5.37;;;7.40;99.90;;;;;;485710;241;27813;-71
2021/05/06 08:51:01;;;;;;;7.00;4.57;;;7.40;99.90;;;;;;484131;244;27933;-71
2021/05/06 08:53:02;;;;;;;5.23;4.50;;;7.50;99.90;;;;;;484108;244;28470;-73
2021/05/06 08:55:03;;;;;;;8.50;4.90;;;7.70;99.90;;;;;;484112;244;28290;-71
2021/05/06 08:57:04;;;;;;;6.10;4.83;;;7.70;99.90;;;;;;484130;244;28342;-72
2021/05/06 08:59:06;;;;;;;5.73;4.10;;;7.70;99.90;;;;;;484129;244;28049;-71
2021/05/06 09:01:07;;;;;;;8.23;4.80;;;7.70;99.90;;;;;;484110;244;28494;-71
2021/05/06 09:03:09;;;;;;;9.90;6.30;;;7.70;99.90;;;;;;484129;244;27943;-71
2021/05/06 09:05:09;;;;;;;5.80;4.30;;;7.70;99.90;;;;;;484120;244;27802;-71
2021/05/06 09:07:11;;;;;;;9.07;4.60;;;7.90;99.90;;;;;;484112;244;27811;-71
2021/05/06 09:09:12;;;;;;;4.30;3.90;;;8.20;99.90;;;;;;484115;244;27895;-71
2021/05/06 09:11:13;;;;;;;7.70;5.03;;;8.30;99.90;;;;;;484124;244;27825;-72
2021/05/06 09:13:14;;;;;;;6.27;4.60;;;8.40;99.90;;;;;;484123;244;27454;-71
2021/05/06 09:15:16;;;;;;;7.70;4.70;;;8.50;99.90;;;;;;484116;244;27810;-71
2021/05/06 09:17:17;;;;;;;4.67;4.27;;;8.70;99.90;;;;;;484126;244;27796;-71
2021/05/06 09:19:19;;;;;;;9.30;4.67;;;8.90;99.90;;;;;;484122;244;28008;-71
2021/05/06 09:21:19;;;;;;;5.47;4.57;;;8.90;99.90;;;;;;484107;244;27826;-71
2021/05/06 09:23:21;;;;;;;6.13;4.87;;;8.90;99.90;;;;;;484103;244;27828;-71
2021/05/06 09:25:22;;;;;;;7.03;4.77;;;9.10;99.90;;;;;;484113;244;28391;-72
2021/05/06 09:27:23;;;;;;;4.43;3.60;;;9.10;99.90;;;;;;484107;246;27931;-72
2021/05/06 09:29:25;;;;;;;4.97;4.47;;;9.20;99.90;;;;;;484127;244;27868;-71
2021/05/06 09:31:26;;;;;;;7.83;4.20;;;9.10;99.90;;;;;;484118;244;28288;-72
2021/05/06 09:33:27;;;;;;;4.47;4.03;;;9.20;99.90;;;;;;484122;244;28061;-74
2021/05/06 09:35:28;;;;;;;6.73;4.23;;;9.40;99.90;;;;;;484108;244;28052;-72
2021/05/06 09:37:30;;;;;;;4.37;3.93;;;9.40;99.90;;;;;;484118;244;27929;-72
2021/05/06 09:39:31;;;;;;;5.70;3.90;;;9.50;99.90;;;;;;484113;244;28192;-71
2021/05/06 09:41:32;;;;;;;6.93;3.93;;;9.80;99.90;;;;;;484104;244;28057;-72
2021/05/06 09:43:35;;;;;;;5.23;3.63;;;10.00;99.90;;;;;;484111;244;28831;-71
2021/05/06 09:45:35;;;;;;;4.40;4.00;;;10.10;99.90;;;;;;484115;244;28372;-72
2021/05/06 09:47:36;;;;;;;5.80;4.60;;;10.00;99.90;;;;;;484116;244;28407;-73
2021/05/06 09:49:38;;;;;;;7.87;5.00;;;9.80;99.90;;;;;;484110;244;28069;-72
2021/05/06 09:51:38;;;;;;;4.53;4.00;;;9.50;99.90;;;;;;484099;244;27893;-72
2021/05/06 09:53:40;;;;;;;5.27;4.50;;;9.50;99.90;;;;;;484120;244;27979;-72
2021/05/06 09:55:41;;;;;;;5.83;4.30;;;9.50;99.90;;;;;;484160;244;28309;-73
2021/05/06 09:57:42;;;;;;;6.33;4.40;;;9.50;99.90;;;;;;484149;244;28119;-73
2021/05/06 09:59:43;;;;;;;4.67;4.23;;;9.40;99.90;;;;;;484166;244;28132;-72
2021/05/06 10:01:45;;;;;;;7.67;4.47;;;9.50;99.90;;;;;;484156;244;28235;-73
2021/05/06 10:03:46;;;;;;;5.97;4.37;;;9.70;99.90;;;;;;484156;244;28198;-71
2021/05/06 10:05:47;;;;;;;7.50;4.20;;;9.90;99.90;;;;;;484192;244;28467;-72
2021/05/06 10:07:48;;;;;;;8.43;4.90;;;9.90;99.90;;;;;;484176;244;28885;-74
2021/05/06 10:09:50;;;;;;;5.63;4.17;;;9.90;99.90;;;;;;484162;244;28447;-71
2021/05/06 10:11:51;;;;;;;5.80;4.73;;;9.90;99.90;;;;;;484165;244;28020;-72
2021/05/06 10:13:54;;;;;;;8.80;4.00;;;9.80;99.90;;;;;;484154;244;28015;-72
2021/05/06 10:15:53;;;;;;;7.27;4.33;;;9.70;99.90;;;;;;484153;244;28631;-72
2021/05/06 10:17:55;;;;;;;7.20;4.40;;;9.60;99.90;;;;;;484163;244;28485;-74
2021/05/06 10:19:56;;;;;;;7.30;4.30;;;9.40;99.90;;;;;;484137;244;28844;-72
2021/05/06 10:21:57;;;;;;;7.23;3.90;;;9.30;99.90;;;;;;484181;244;28642;-72
2021/05/06 10:23:58;;;;;;;7.90;4.53;;;9.20;99.90;;;;;;484157;244;28926;-72
2021/05/06 10:26:00;;;;;;;8.10;4.43;;;9.10;99.90;;;;;;484160;244;28537;-71
2021/05/06 10:28:01;;;;;;;6.87;4.93;;;8.90;99.90;;;;;;484167;244;28042;-71
2021/05/06 10:30:02;;;;;;;4.97;4.10;;;8.80;99.90;;;;;;484173;244;28002;-71
2021/05/06 10:32:03;;;;;;;7.07;4.03;;;8.60;99.90;;;;;;484159;244;27923;-72
2021/05/06 10:34:05;;;;;;;5.90;4.70;;;8.70;99.90;;;;;;484140;244;27763;-71
2021/05/06 10:36:06;;;;;;;6.57;4.50;;;8.90;99.90;;;;;;484155;244;27983;-72
2021/05/06 10:38:07;;;;;;;5.90;4.57;;;9.20;99.90;;;;;;484146;244;27889;-71
2021/05/06 10:40:09;;;;;;;6.83;5.17;;;9.60;99.90;;;;;;484151;244;27941;-72
2021/05/06 10:42:10;;;;;;;9.87;4.63;;;10.00;99.90;;;;;;484189;244;28134;-72
2021/05/06 10:44:11;;;;;;;7.53;4.80;;;10.10;99.90;;;;;;484164;244;28182;-71
2021/05/06 10:46:13;;;;;;;5.10;4.17;;;10.00;99.90;;;;;;484162;244;28223;-72
2021/05/06 10:48:13;;;;;;;14.43;4.43;;;9.50;99.90;;;;;;484161;244;28630;-71
2021/05/06 10:50:15;;;;;;;8.90;4.43;;;9.30;99.90;;;;;;484148;244;28615;-72
2021/05/06 10:52:17;;;;;;;8.60;5.13;;;9.30;99.90;;;;;;484160;244;28931;-72
2021/05/06 10:54:17;;;;;;;6.50;3.70;;;9.40;99.90;;;;;;484163;244;28615;-71
2021/05/06 10:56:18;;;;;;;4.90;4.03;;;9.50;99.90;;;;;;484144;244;28658;-72
2021/05/06 10:58:20;;;;;;;6.67;4.47;;;9.70;99.90;;;;;;484149;244;28594;-72
2021/05/06 11:00:22;;;;;;;6.10;3.80;;;10.00;99.90;;;;;;484158;244;27984;-71
2021/05/06 11:02:22;;;;;;;5.60;3.90;;;10.20;99.90;;;;;;484168;244;28026;-74
2021/05/06 11:04:23;;;;;;;10.00;4.60;;;10.30;99.90;;;;;;484152;244;27977;-72
2021/05/06 11:06:25;;;;;;;8.00;4.20;;;10.10;99.90;;;;;;484152;244;28100;-72
2021/05/06 11:08:26;;;;;;;7.33;3.87;;;10.10;99.90;;;;;;484120;244;28311;-72
2021/05/06 11:10:27;;;;;;;5.73;3.60;;;10.30;99.90;;;;;;484132;244;28249;-72
2021/05/06 11:12:28;;;;;;;5.80;3.87;;;10.30;99.90;;;;;;484123;244;28395;-73
2021/05/06 11:14:30;;;;;;;6.93;4.03;;;10.20;99.90;;;;;;484131;244;28106;-72
2021/05/06 11:16:31;;;;;;;4.60;3.40;;;10.10;99.90;;;;;;484120;244;28620;-72
2021/05/06 11:18:32;;;;;;;7.53;4.10;;;9.70;99.90;;;;;;484118;244;28730;-72
2021/05/06 11:20:34;;;;;;;6.43;4.13;;;9.40;99.90;;;;;;484131;244;28505;-72
2021/05/06 11:22:35;;;;;;;9.00;3.87;;;9.30;99.90;;;;;;484129;244;28658;-73
2021/05/06 11:24:37;;;;;;;6.70;3.70;;;9.10;99.90;;;;;;484118;244;28123;-71
2021/05/06 11:26:37;;;;;;;4.60;3.60;;;8.90;99.90;;;;;;484113;244;28035;-72
2021/05/06 11:28:38;;;;;;;7.43;3.70;;;8.90;99.90;;;;;;484135;244;27943;-71
2021/05/06 11:30:40;;;;;;;8.63;4.30;;;8.80;99.90;;;;;;484140;244;27935;-71
2021/05/06 11:32:41;;;;;;;5.57;3.33;;;8.90;99.90;;;;;;484131;244;28094;-71
2021/05/06 11:34:42;;;;;;;8.67;3.90;;;9.10;99.90;;;;;;484136;244;27709;-72
2021/05/06 11:36:43;;;;;;;6.60;4.00;;;9.10;99.90;;;;;;484140;244;28040;-72
2021/05/06 11:38:45;;;;;;;9.87;3.63;;;9.10;99.90;;;;;;484134;244;27941;-71
2021/05/06 11:40:46;;;;;;;7.07;3.30;;;9.30;99.90;;;;;;484129;244;28057;-71
2021/05/06 11:42:47;;;;;;;5.10;3.17;;;9.40;99.90;;;;;;484136;244;27809;-71
2021/05/06 11:44:48;;;;;;;4.90;3.23;;;9.50;99.90;;;;;;484125;244;27930;-71
2021/05/06 11:46:50;;;;;;;6.93;3.47;;;9.60;99.90;;;;;;484120;244;27961;-72
2021/05/06 11:48:51;;;;;;;5.57;3.43;;;9.50;99.90;;;;;;484112;244;28152;-71
2021/05/06 11:50:52;;;;;;;7.30;4.47;;;9.50;99.90;;;;;;484132;244;28400;-71
2021/05/06 11:52:53;;;;;;;5.90;3.50;;;9.30;99.90;;;;;;484127;244;28605;-71
2021/05/06 11:54:55;;;;;;;6.80;3.40;;;9.20;99.90;;;;;;484115;244;28353;-71
2021/05/06 11:56:57;;;;;;;5.50;3.50;;;9.10;99.90;;;;;;484131;244;28304;-73
2021/05/06 11:58:58;;;;;;;5.40;3.27;;;9.00;99.90;;;;;;484099;244;28393;-71
2021/05/06 12:00:58;;;;;;;4.60;3.20;;;8.90;99.90;;;;;;484115;244;28477;-71
2021/05/06 12:03:00;;;;;;;8.40;3.73;;;8.70;99.90;;;;;;484126;244;28000;-70
2021/05/06 12:05:01;;;;;;;3.47;2.90;;;8.60;99.90;;;;;;484121;244;27680;-71
2021/05/06 12:07:02;;;;;;;3.97;3.30;;;8.60;99.90;;;;;;484145;244;27860;-72
2021/05/06 12:09:03;;;;;;;6.10;4.00;;;8.70;99.90;;;;;;484127;244;27684;-70
2021/05/06 12:11:04;;;;;;;4.53;3.23;;;8.90;99.90;;;;;;484116;244;27814;-72
2021/05/06 12:13:06;;;;;;;4.97;2.97;;;9.10;99.90;;;;;;484118;244;28088;-71
2021/05/06 12:15:07;;;;;;;5.13;3.23;;;9.20;99.90;;;;;;484135;244;27947;-72
2021/05/06 12:17:08;;;;;;;4.33;3.33;;;9.10;99.90;;;;;;484141;244;27809;-73
2021/05/06 12:19:10;;;;;;;5.90;3.20;;;8.90;99.90;;;;;;484109;244;28037;-71
2021/05/06 12:21:11;;;;;;;3.23;3.00;;;8.90;99.90;;;;;;484116;244;27882;-71
2021/05/06 12:23:12;;;;;;;4.63;3.37;;;9.00;99.90;;;;;;484130;244;27898;-71
2021/05/06 12:25:13;;;;;;;3.63;3.33;;;9.00;99.90;;;;;;484135;244;28149;-71
2021/05/06 12:27:14;;;;;;;5.97;4.03;;;8.90;99.90;;;;;;484121;244;27826;-73
2021/05/06 12:29:16;;;;;;;6.47;3.83;;;8.80;99.90;;;;;;484155;244;28384;-71
2021/05/06 12:31:17;;;;;;;4.93;2.83;;;8.60;99.90;;;;;;484133;244;28359;-71
2021/05/06 12:33:18;;;;;;;4.83;2.63;;;8.50;99.90;;;;;;484113;244;28169;-71
2021/05/06 12:35:19;;;;;;;3.30;2.40;;;8.30;99.90;;;;;;484144;244;28231;-70
2021/05/06 12:37:21;;;;;;;2.67;2.47;;;8.50;99.90;;;;;;484572;244;28226;-74
2021/05/06 12:39:22;;;;;;;3.40;2.57;;;8.50;99.90;;;;;;484537;244;27577;-71
2021/05/06 12:41:23;;;;;;;2.90;2.70;;;8.60;99.90;;;;;;484079;244;27686;-72
2021/05/06 12:43:28;;;;;;;3.03;2.30;;;8.60;99.90;;;;;;484138;244;27815;-70
2021/05/06 12:45:30;;;;;;;3.87;2.20;;;8.60;99.90;;;;;;484317;241;27909;-71
2021/05/06 12:47:28;;;;;;;3.23;1.93;;;8.60;99.90;;;;;;484180;244;27846;-71
2021/05/06 12:49:28;;;;;;;2.43;2.00;;;8.60;99.90;;;;;;484164;244;27738;-71
2021/05/06 12:51:29;;;;;;;3.37;2.00;;;8.50;99.90;;;;;;484113;244;27907;-73
2021/05/06 12:53:31;;;;;;;2.13;1.70;;;8.40;99.90;;;;;;484117;244;27924;-71
2021/05/06 12:55:32;;;;;;;2.47;1.60;;;8.40;99.90;;;;;;484130;244;27809;-71
2021/05/06 12:57:33;;;;;;;2.40;1.60;;;8.30;99.90;;;;;;484123;244;27453;-70
2021/05/06 12:59:34;;;;;;;2.20;1.87;;;8.20;99.90;;;;;;484119;244;27927;-70
2021/05/06 13:01:36;;;;;;;1.70;1.60;;;8.10;99.90;;;;;;484103;244;27565;-72
2021/05/06 13:03:44;;;;;;;2.77;1.80;;;8.10;99.90;;;;;;484121;244;27906;-71
2021/05/06 13:05:41;;;;;;;1.80;1.70;;;8.10;99.90;;;;;;484290;241;28024;-71
2021/05/06 13:07:42;;;;;;;2.70;1.63;;;8.00;99.90;;;;;;484118;244;27928;-71
2021/05/06 13:09:44;;;;;;;1.93;1.80;;;8.20;99.90;;;;;;484120;244;27915;-71
2021/05/06 13:11:45;;;;;;;2.80;1.70;;;8.30;99.90;;;;;;484114;244;28373;-70
2021/05/06 13:13:46;;;;;;;2.60;1.70;;;8.30;99.90;;;;;;484128;244;28408;-72
2021/05/06 13:15:47;;;;;;;1.67;1.57;;;8.30;99.90;;;;;;484111;244;27901;-70
2021/05/06 13:17:48;;;;;;;1.90;1.80;;;8.30;99.90;;;;;;484128;244;27576;-72
2021/05/06 13:19:50;;;;;;;3.27;1.80;;;8.30;99.90;;;;;;484078;244;27893;-70
2021/05/06 13:21:51;;;;;;;2.87;1.70;;;8.40;99.90;;;;;;484111;244;27819;-70
2021/05/06 13:23:52;;;;;;;4.50;1.60;;;8.40;99.90;;;;;;484126;244;27870;-71
2021/05/06 13:25:53;;;;;;;1.33;1.23;;;8.50;99.90;;;;;;484114;244;27912;-71
2021/05/06 13:27:55;;;;;;;1.80;1.70;;;8.60;99.90;;;;;;484120;244;27472;-71
2021/05/06 13:29:56;;;;;;;1.93;1.50;;;8.60;99.90;;;;;;484100;244;27821;-70
2021/05/06 13:31:57;;;;;;;2.70;1.63;;;8.60;99.90;;;;;;484110;244;27594;-71